createdAt,value
2022-12-08T00:02:20.295Z,91.51
2022-12-08T00:05:06.887Z,92.30
2022-12-08T00:07:52.258Z,92.32
2022-12-08T00:10:47.315Z,89.61
2022-12-08T00:13:05.409Z,89.91
2022-12-08T00:16:00.643Z,90.89
2022-12-08T00:18:27.188Z,90.98
2022-12-08T00:20:55.552Z,90.94
2022-12-08T00:23:22.128Z,90.84
2022-12-08T00:25:48.709Z,91.33
2022-12-08T00:28:16.433Z,91.00
2022-12-08T00:30:43.141Z,89.21
2022-12-08T00:33:13.913Z,89.48
2022-12-08T00:35:44.258Z,88.56
2022-12-08T00:38:56.339Z,87.50
2022-12-08T00:42:02.680Z,89.09
2022-12-08T00:44:48.185Z,89.36
2022-12-08T00:47:22.224Z,89.61
2022-12-08T00:50:21.973Z,89.85
2022-12-08T00:56:08.217Z,89.43
2022-12-08T00:58:46.242Z,87.82
2022-12-08T01:02:03.941Z,88.43
2022-12-08T01:04:32.190Z,87.47
2022-12-08T01:07:02.530Z,86.87
2022-12-08T01:09:33.160Z,87.22
2022-12-08T01:15:02.480Z,88.59
2022-12-08T01:17:50.616Z,89.53
2022-12-08T01:21:06.646Z,90.16
2022-12-08T01:23:55.340Z,90.27
2022-12-08T01:26:24.593Z,89.65
2022-12-08T07:04:24.777Z,88.36
2022-12-08T07:06:51.435Z,86.60
2022-12-08T07:09:18.116Z,85.50
2022-12-08T07:11:44.646Z,85.04
2022-12-08T07:14:17.427Z,85.47
2022-12-08T07:16:46.811Z,86.17
2022-12-08T07:19:17.367Z,86.45
2022-12-08T07:21:49.806Z,86.53
2022-12-08T07:24:22.590Z,86.50
2022-12-08T07:26:52.812Z,87.31
2022-12-08T07:29:26.226Z,88.11
2022-12-08T07:31:57.821Z,87.56
2022-12-08T07:34:41.306Z,87.59
2022-12-08T07:37:11.528Z,87.76
2022-12-08T07:39:44.147Z,88.88
2022-12-08T07:42:14.437Z,88.13
2022-12-08T07:44:46.969Z,87.54
2022-12-08T07:47:58.424Z,87.37
2022-12-08T07:50:29.296Z,86.26
2022-12-08T07:52:55.991Z,87.10
2022-12-08T07:55:22.580Z,86.86
2022-12-08T07:57:50.039Z,85.22
2022-12-08T08:00:17.825Z,86.03
2022-12-08T08:02:44.824Z,85.13
2022-12-08T08:05:14.399Z,86.47
2022-12-08T08:07:42.908Z,85.91
2022-12-08T08:10:10.731Z,86.37
2022-12-08T08:12:38.210Z,85.11
2022-12-08T08:15:10.202Z,85.32
2022-12-08T08:17:37.546Z,85.33
2022-12-08T08:20:06.454Z,84.52
2022-12-08T08:22:36.214Z,85.44
2022-12-08T08:25:03.308Z,86.35
2022-12-08T08:27:30.229Z,87.23
2022-12-08T08:29:57.008Z,86.08
2022-12-08T08:32:26.344Z,86.25
2022-12-08T08:34:55.262Z,85.52
2022-12-08T08:37:22.136Z,85.86
2022-12-08T08:39:48.787Z,85.16
2022-12-08T08:42:15.533Z,86.06
2022-12-08T08:44:42.356Z,86.34
